createdAt,value
2023-09-30T00:00:02.078Z,15.98
2023-09-30T00:02:29.229Z,19.50
2023-09-30T00:04:56.356Z,16.80
2023-09-30T00:07:23.446Z,28.13
2023-09-30T00:09:51.965Z,24.13
2023-09-30T00:12:19.396Z,20.92
2023-09-30T00:14:46.668Z,24.77
2023-09-30T00:17:13.871Z,16.25
2023-09-30T00:19:41.019Z,13.88
2023-09-30T00:22:08.094Z,16.92
2023-09-30T00:24:35.419Z,17.90
2023-09-30T00:27:02.813Z,18.58
2023-09-30T00:29:29.986Z,20.20
2023-09-30T00:31:57.060Z,22.60
2023-09-30T00:34:24.131Z,19.00
2023-09-30T00:36:51.463Z,22.90
2023-09-30T00:39:18.607Z,19.55
2023-09-30T00:41:45.697Z,18.38
2023-09-30T00:44:12.718Z,24.75
2023-09-30T00:46:42.648Z,21.42
2023-09-30T00:49:11.375Z,20.30
2023-09-30T00:51:39.451Z,14.75
2023-09-30T00:54:07.370Z,19.08
2023-09-30T00:56:34.986Z,27.20
2023-09-30T00:59:02.319Z,22.15
2023-09-30T01:01:29.779Z,23.58
2023-09-30T01:03:57.265Z,23.13
2023-09-30T01:06:24.740Z,15.30
2023-09-30T01:08:52.151Z,19.65
2023-09-30T01:11:19.381Z,21.33
2023-09-30T01:13:48.484Z,20.67
2023-09-30T01:16:16.147Z,14.02
2023-09-30T01:18:44.443Z,19.17
2023-09-30T01:21:12.748Z,14.27
2023-09-30T01:23:40.167Z,24.58
2023-09-30T01:26:11.135Z,18.48
2023-09-30T01:28:38.302Z,14.50
2023-09-30T01:31:06.279Z,22.25
2023-09-30T01:33:34.253Z,17.30
2023-09-30T01:36:01.931Z,16.02
2023-09-30T01:38:29.115Z,13.70
2023-09-30T01:40:58.747Z,20.55
2023-09-30T01:43:27.973Z,15.52
2023-09-30T01:45:55.172Z,17.10
2023-09-30T01:48:22.394Z,12.82
2023-09-30T01:50:49.442Z,20.42
2023-09-30T01:53:16.637Z,22.33
2023-09-30T01:55:45.428Z,17.90
2023-09-30T01:58:12.719Z,27.08
2023-09-30T02:00:40.022Z,27.85
2023-09-30T02:03:08.504Z,18.58
2023-09-30T02:05:35.978Z,14.63
2023-09-30T02:08:07.062Z,16.42
2023-09-30T02:10:34.806Z,18.05
2023-09-30T02:13:02.369Z,15.35
2023-09-30T02:15:29.510Z,18.63
2023-09-30T02:17:56.813Z,19.58
2023-09-30T02:20:26.836Z,14.50
2023-09-30T02:22:55.351Z,20.80
2023-09-30T02:25:22.667Z,20.08
2023-09-30T02:27:50.783Z,16.80
2023-09-30T02:30:18.657Z,21.67
2023-09-30T02:32:47.539Z,17.40
2023-09-30T02:35:17.734Z,25.45
2023-09-30T02:37:45.127Z,21.95
2023-09-30T02:40:12.610Z,15.05
2023-09-30T02:42:41.065Z,23.40
2023-09-30T02:45:09.671Z,20.20
2023-09-30T02:47:38.104Z,23.67
2023-09-30T02:50:12.711Z,21.05
2023-09-30T02:52:42.903Z,16.17
2023-09-30T02:55:13.377Z,14.93
2023-09-30T02:57:40.908Z,17.50
2023-09-30T03:00:22.378Z,20.30
2023-09-30T03:02:58.588Z,16.05
2023-09-30T03:05:25.812Z,21.88
2023-09-30T03:07:53.016Z,16.83
2023-09-30T03:10:24.781Z,19.27
2023-09-30T03:12:52.930Z,27.25
2023-09-30T03:15:20.737Z,16.35
2023-09-30T03:17:50.260Z,18.73
2023-09-30T03:20:21.206Z,23.10
2023-09-30T03:22:48.988Z,20.42
2023-09-30T03:25:18.912Z,24.17
2023-09-30T03:27:49.115Z,19.15
2023-09-30T03:30:17.199Z,15.82
2023-09-30T03:32:44.880Z,19.23
2023-09-30T03:35:16.177Z,20.13
2023-09-30T03:37:46.756Z,20.23
2023-09-30T03:40:19.647Z,16.10
2023-09-30T03:42:50.593Z,15.50
2023-09-30T03:45:18.474Z,25.17
2023-09-30T03:47:46.922Z,25.20
2023-09-30T03:50:15.506Z,22.40
2023-09-30T03:52:45.712Z,17.52
2023-09-30T03:55:17.313Z,19.45
2023-09-30T03:57:52.495Z,22.92
2023-09-30T04:00:21.512Z,19.45
2023-09-30T04:03:00.839Z,24.30
2023-09-30T04:05:30.866Z,18.58
2023-09-30T04:07:58.056Z,23.67
2023-09-30T04:10:26.230Z,20.90
2023-09-30T04:12:53.550Z,26.55
2023-09-30T04:15:20.836Z,21.85
2023-09-30T04:17:49.552Z,24.80
2023-09-30T04:20:24.462Z,18.92
2023-09-30T04:22:52.431Z,36.15
2023-09-30T04:25:19.843Z,18.63
2023-09-30T04:27:49.609Z,18.85
2023-09-30T04:30:18.645Z,36.67
2023-09-30T04:32:45.882Z,30.90
2023-09-30T04:35:12.987Z,25.70
2023-09-30T04:37:40.327Z,23.73
2023-09-30T04:40:16.552Z,18.17
2023-09-30T04:42:45.680Z,26.38
2023-09-30T04:45:13.890Z,31.08
2023-09-30T04:47:41.160Z,21.73
2023-09-30T04:50:09.610Z,27.70
2023-09-30T04:52:36.779Z,23.50
2023-09-30T04:55:05.437Z,21.23
2023-09-30T04:57:35.480Z,22.35
2023-09-30T05:00:02.601Z,26.60
2023-09-30T05:02:29.679Z,37.88
2023-09-30T05:04:56.867Z,19.90
2023-09-30T05:07:24.059Z,24.23
2023-09-30T05:09:52.251Z,24.17
2023-09-30T05:12:19.461Z,23.20
2023-09-30T05:14:46.570Z,30.80
2023-09-30T05:17:14.406Z,20.20
2023-09-30T05:19:41.908Z,27.17
2023-09-30T05:22:08.957Z,22.58
2023-09-30T05:24:36.457Z,28.52
2023-09-30T05:27:03.695Z,25.02
2023-09-30T05:29:34.423Z,21.05
2023-09-30T05:32:01.657Z,29.73
2023-09-30T05:34:29.131Z,20.83
2023-09-30T05:36:56.320Z,22.52
2023-09-30T05:39:23.448Z,22.65
2023-09-30T05:41:50.795Z,26.33
2023-09-30T05:44:18.018Z,23.27
2023-09-30T05:46:46.592Z,20.42
2023-09-30T05:49:14.935Z,25.25
2023-09-30T05:51:42.835Z,21.27
2023-09-30T05:54:13.096Z,21.10
2023-09-30T05:56:41.208Z,19.75
2023-09-30T05:59:08.637Z,24.02
2023-09-30T06:01:37.126Z,24.73
2023-09-30T06:04:04.648Z,19.27
2023-09-30T06:06:31.917Z,18.98
2023-09-30T06:09:01.900Z,19.73
2023-09-30T06:11:32.139Z,25.58
2023-09-30T06:14:02.327Z,30.90
2023-09-30T06:16:32.896Z,27.17
2023-09-30T06:19:00.295Z,39.72
2023-09-30T06:21:30.503Z,24.45
2023-09-30T06:23:57.917Z,22.38
2023-09-30T06:26:30.652Z,29.38
2023-09-30T06:29:00.259Z,27.17
2023-09-30T06:31:28.668Z,25.45
2023-09-30T06:33:59.589Z,24.83
2023-09-30T06:36:30.027Z,21.08
2023-09-30T06:38:57.482Z,19.08
2023-09-30T06:41:24.955Z,21.08
2023-09-30T06:43:53.099Z,23.30
2023-09-30T06:46:20.328Z,19.25
2023-09-30T06:48:47.439Z,21.95
2023-09-30T06:51:18.926Z,19.27
2023-09-30T06:53:47.341Z,19.77
2023-09-30T06:56:16.062Z,32.83
2023-09-30T06:58:45.895Z,31.58
2023-09-30T07:01:18.560Z,23.88
2023-09-30T07:03:49.182Z,24.75
2023-09-30T07:06:24.059Z,34.53
2023-09-30T07:08:54.277Z,32.22
2023-09-30T07:11:30.290Z,20.83
2023-09-30T07:14:01.587Z,24.85
2023-09-30T07:16:29.019Z,26.05
2023-09-30T07:18:56.757Z,22.00
2023-09-30T07:21:24.321Z,32.03
2023-09-30T07:23:51.757Z,35.90
2023-09-30T07:26:18.786Z,23.90
2023-09-30T07:28:48.632Z,21.17
2023-09-30T07:31:15.866Z,20.33
2023-09-30T07:33:43.249Z,19.20
2023-09-30T07:36:10.397Z,21.30
2023-09-30T07:38:38.324Z,20.27
2023-09-30T07:41:06.341Z,22.50
2023-09-30T07:43:34.745Z,16.58
2023-09-30T07:46:09.914Z,17.35
2023-09-30T07:48:37.198Z,17.70
2023-09-30T07:51:11.255Z,24.70
2023-09-30T07:53:38.310Z,23.08
2023-09-30T07:56:05.458Z,14.55
2023-09-30T07:58:33.308Z,15.55
2023-09-30T08:01:01.404Z,18.40
2023-09-30T08:03:29.622Z,18.08
2023-09-30T08:05:57.248Z,15.77
2023-09-30T08:08:25.296Z,15.60
2023-09-30T08:10:56.783Z,21.95
2023-09-30T08:13:27.141Z,13.43
2023-09-30T08:15:54.443Z,16.73
2023-09-30T08:18:21.663Z,20.75
2023-09-30T08:20:50.221Z,13.40
2023-09-30T08:23:17.346Z,17.45
2023-09-30T08:25:46.661Z,17.38
2023-09-30T08:28:13.976Z,18.23
2023-09-30T08:30:42.069Z,17.77
2023-09-30T08:33:09.476Z,15.45
2023-09-30T08:35:40.560Z,16.17
2023-09-30T08:38:07.654Z,15.70
2023-09-30T08:40:45.303Z,13.85
2023-09-30T08:43:13.251Z,13.60
2023-09-30T08:45:43.140Z,16.20
2023-09-30T08:48:13.078Z,11.00
2023-09-30T08:50:42.075Z,9.18
2023-09-30T08:53:12.939Z,16.05
2023-09-30T08:55:44.623Z,18.02
2023-09-30T09:00:41.839Z,14.60
2023-09-30T09:03:09.918Z,19.80
2023-09-30T09:05:37.150Z,13.73
2023-09-30T09:08:04.584Z,12.20
2023-09-30T09:10:31.739Z,21.50
2023-09-30T09:12:59.874Z,14.80
2023-09-30T09:15:29.751Z,17.25
2023-09-30T09:17:57.207Z,12.65
2023-09-30T09:20:26.934Z,12.75
2023-09-30T09:22:56.607Z,16.80
2023-09-30T09:25:24.572Z,15.18
2023-09-30T09:27:52.811Z,19.27
2023-09-30T09:30:25.437Z,16.13
2023-09-30T09:32:59.024Z,11.43
2023-09-30T09:35:30.425Z,10.90
2023-09-30T09:37:58.364Z,14.70
2023-09-30T09:40:30.265Z,11.45
2023-09-30T09:42:58.261Z,14.15
2023-09-30T09:45:28.987Z,14.77
2023-09-30T09:47:56.209Z,14.73
2023-09-30T09:50:24.182Z,13.55
2023-09-30T09:52:53.297Z,13.38
2023-09-30T09:55:23.052Z,8.13
2023-09-30T09:57:51.006Z,16.27
2023-09-30T10:00:24.976Z,10.93
2023-09-30T10:02:53.493Z,10.35
2023-09-30T10:05:22.187Z,11.93
2023-09-30T10:07:56.705Z,13.43
2023-09-30T10:10:26.019Z,12.35
2023-09-30T10:12:53.262Z,13.63
2023-09-30T10:15:26.345Z,13.93
2023-09-30T10:18:10.314Z,10.77
2023-09-30T10:20:49.959Z,12.18
2023-09-30T10:23:22.417Z,11.63
2023-09-30T10:25:52.654Z,10.18
2023-09-30T10:28:38.627Z,11.38
2023-09-30T10:31:15.032Z,10.63
2023-09-30T10:34:02.701Z,12.27
2023-09-30T10:36:35.398Z,10.25
2023-09-30T10:39:04.064Z,9.30
2023-09-30T10:41:40.720Z,10.98
2023-09-30T10:44:26.442Z,18.67
2023-09-30T10:46:59.042Z,10.65
2023-09-30T10:49:26.151Z,8.73
2023-09-30T10:51:55.208Z,14.27
2023-09-30T10:54:26.926Z,13.63
2023-09-30T10:56:54.906Z,7.25
2023-09-30T10:59:26.306Z,9.75
2023-09-30T11:04:22.537Z,11.93
2023-09-30T11:06:52.529Z,10.40
2023-09-30T11:09:22.561Z,9.18
2023-09-30T11:11:51.712Z,9.00
2023-09-30T11:14:21.789Z,9.88
2023-09-30T11:16:50.708Z,10.20
2023-09-30T11:19:19.494Z,13.50
2023-09-30T11:21:46.994Z,12.43
2023-09-30T11:24:15.435Z,12.60
2023-09-30T11:26:42.783Z,12.00
2023-09-30T11:29:14.863Z,9.00
2023-09-30T11:31:43.851Z,9.65
2023-09-30T11:34:12.695Z,12.48
2023-09-30T11:36:57.978Z,11.90
2023-09-30T11:39:29.722Z,10.65
2023-09-30T11:41:58.348Z,10.35
2023-09-30T11:44:27.723Z,11.02
2023-09-30T11:47:01.918Z,10.57
2023-09-30T11:49:39.494Z,10.60
2023-09-30T11:52:10.802Z,8.82
2023-09-30T11:54:42.492Z,5.75
2023-09-30T11:57:11.219Z,11.05
2023-09-30T11:59:40.338Z,7.10
2023-09-30T12:02:15.014Z,9.27
2023-09-30T12:04:44.907Z,9.75
2023-09-30T12:07:12.794Z,9.18
2023-09-30T12:09:40.942Z,10.50
2023-09-30T12:12:12.826Z,14.35
2023-09-30T12:14:40.813Z,9.50
2023-09-30T12:17:12.882Z,8.23
2023-09-30T12:19:42.463Z,7.65
2023-09-30T12:22:11.461Z,8.45
2023-09-30T12:24:39.157Z,6.82
2023-09-30T12:27:07.048Z,10.32
2023-09-30T12:29:34.257Z,5.95
2023-09-30T12:32:02.292Z,16.45
2023-09-30T12:34:29.877Z,10.57
2023-09-30T12:36:58.134Z,6.47
2023-09-30T12:39:27.212Z,8.63
2023-09-30T12:41:55.512Z,7.30
2023-09-30T12:44:24.070Z,8.98
2023-09-30T12:46:52.504Z,8.90
2023-09-30T12:49:19.992Z,6.80
2023-09-30T12:51:47.354Z,8.50
2023-09-30T12:54:15.943Z,9.25
2023-09-30T12:56:43.578Z,9.25
2023-09-30T12:59:10.816Z,8.40
2023-09-30T13:01:37.972Z,7.43
2023-09-30T13:04:09.269Z,7.10
2023-09-30T13:06:37.050Z,7.00
2023-09-30T13:09:06.033Z,8.63
2023-09-30T13:11:35.722Z,10.00
2023-09-30T13:14:04.412Z,9.02
2023-09-30T13:16:31.574Z,7.53
2023-09-30T13:18:58.919Z,4.55
2023-09-30T13:21:26.807Z,7.40
2023-09-30T13:23:55.997Z,6.75
2023-09-30T13:26:23.326Z,6.97
2023-09-30T13:28:50.372Z,7.40
2023-09-30T13:31:18.013Z,11.20
2023-09-30T13:33:45.279Z,10.18
2023-09-30T13:36:12.493Z,8.32
2023-09-30T13:38:39.585Z,4.82
2023-09-30T13:41:06.623Z,7.35
2023-09-30T13:43:33.702Z,6.75
2023-09-30T13:46:05.033Z,7.63
2023-09-30T13:48:32.334Z,6.47
2023-09-30T13:51:10.128Z,11.13
2023-09-30T13:53:37.760Z,5.70
2023-09-30T13:56:05.004Z,8.13
2023-09-30T13:58:32.183Z,5.47
2023-09-30T14:00:59.678Z,5.43
2023-09-30T14:03:27.017Z,5.40
2023-09-30T14:06:00.431Z,8.98
2023-09-30T14:08:27.518Z,6.60
2023-09-30T14:10:54.566Z,10.32
2023-09-30T14:13:21.653Z,5.95
2023-09-30T14:15:48.878Z,5.82
2023-09-30T14:18:16.227Z,5.75
2023-09-30T14:20:43.649Z,6.18
2023-09-30T14:23:10.974Z,7.75
2023-09-30T14:25:38.100Z,7.05
2023-09-30T14:28:06.475Z,5.70
2023-09-30T14:30:34.616Z,5.55
2023-09-30T14:33:02.156Z,11.40
2023-09-30T14:35:29.391Z,6.95
2023-09-30T14:37:58.378Z,4.70
2023-09-30T14:40:25.657Z,6.65
2023-09-30T14:42:53.035Z,7.93
2023-09-30T14:45:21.762Z,7.25
2023-09-30T14:47:49.146Z,6.55
2023-09-30T14:50:17.088Z,6.78
2023-09-30T14:52:44.185Z,6.32
2023-09-30T14:55:11.493Z,11.48
2023-09-30T14:57:38.735Z,6.90
2023-09-30T15:00:07.756Z,5.55
2023-09-30T15:02:35.192Z,8.63
2023-09-30T15:05:02.308Z,5.35
2023-09-30T15:07:29.405Z,6.85
2023-09-30T15:09:56.600Z,8.07
2023-09-30T15:12:23.661Z,13.10
2023-09-30T15:14:52.573Z,5.15
2023-09-30T15:17:20.044Z,6.22
2023-09-30T15:19:47.308Z,9.63
2023-09-30T15:22:15.730Z,6.13
2023-09-30T15:24:42.990Z,5.97
2023-09-30T15:27:10.147Z,7.57
2023-09-30T15:29:37.494Z,7.18
2023-09-30T15:32:05.998Z,5.30
2023-09-30T15:34:33.260Z,5.35
2023-09-30T15:37:00.471Z,5.97
2023-09-30T15:39:27.580Z,8.07
2023-09-30T15:41:54.796Z,7.43
2023-09-30T15:44:21.953Z,6.32
2023-09-30T15:46:49.031Z,7.40
2023-09-30T15:49:16.288Z,5.55
2023-09-30T15:51:43.431Z,6.57
2023-09-30T15:54:10.679Z,7.43
2023-09-30T15:56:49.967Z,7.30
2023-09-30T15:59:23.271Z,4.82
2023-09-30T16:01:50.593Z,7.93
2023-09-30T16:04:17.812Z,3.28
2023-09-30T16:06:45.006Z,8.32
2023-09-30T16:09:12.238Z,8.93
2023-09-30T16:11:39.286Z,5.00
2023-09-30T16:14:07.207Z,8.63
2023-09-30T16:16:34.842Z,8.90
2023-09-30T16:19:02.016Z,5.15
2023-09-30T16:21:29.547Z,6.72
2023-09-30T16:23:56.863Z,7.43
2023-09-30T16:26:24.118Z,6.90
2023-09-30T16:28:52.693Z,7.40
2023-09-30T16:31:20.085Z,5.95
2023-09-30T16:33:47.331Z,7.18
2023-09-30T16:36:15.556Z,5.47
2023-09-30T16:38:42.852Z,8.35
2023-09-30T16:41:10.002Z,7.03
2023-09-30T16:43:37.487Z,7.45
2023-09-30T16:46:05.884Z,8.27
2023-09-30T16:48:33.274Z,7.70
2023-09-30T16:51:00.811Z,9.98
2023-09-30T16:53:28.733Z,8.00
2023-09-30T16:55:55.847Z,7.05
2023-09-30T16:58:22.950Z,8.40
2023-09-30T17:00:50.402Z,8.18
2023-09-30T17:03:17.578Z,6.80
2023-09-30T17:05:44.805Z,6.50
2023-09-30T17:08:13.114Z,7.35
2023-09-30T17:10:40.418Z,6.93
2023-09-30T17:13:07.575Z,7.55
2023-09-30T17:15:35.162Z,6.07
2023-09-30T17:18:02.476Z,6.00
2023-09-30T17:20:30.393Z,6.38
2023-09-30T17:22:57.727Z,6.32
2023-09-30T17:25:27.145Z,8.30
2023-09-30T17:27:54.406Z,9.60
2023-09-30T17:30:38.260Z,6.35
2023-09-30T17:33:08.428Z,7.82
2023-09-30T17:35:39.794Z,8.50
2023-09-30T17:38:07.003Z,14.77
2023-09-30T17:40:34.102Z,18.38
2023-09-30T17:43:01.286Z,18.38
2023-09-30T17:45:28.920Z,9.25
2023-09-30T17:47:56.153Z,12.85
2023-09-30T17:50:23.334Z,11.65
2023-09-30T17:52:51.791Z,10.20
2023-09-30T17:55:18.874Z,10.23
2023-09-30T17:57:46.493Z,7.53
2023-09-30T18:00:14.526Z,11.73
2023-09-30T18:02:41.696Z,10.50
2023-09-30T18:05:09.598Z,6.72
2023-09-30T18:07:36.736Z,7.80
2023-09-30T18:10:04.418Z,7.50
2023-09-30T18:12:31.574Z,7.60
2023-09-30T18:15:00.215Z,9.45
2023-09-30T18:17:27.503Z,8.27
2023-09-30T18:19:54.744Z,8.25
2023-09-30T18:22:21.950Z,7.40
2023-09-30T18:24:49.212Z,8.43
2023-09-30T18:27:16.394Z,9.27
2023-09-30T18:29:44.475Z,8.10
2023-09-30T18:32:12.013Z,7.82
2023-09-30T18:34:39.175Z,7.13
2023-09-30T18:37:06.505Z,7.55
2023-09-30T18:39:33.917Z,7.53
2023-09-30T18:42:01.085Z,9.13
2023-09-30T18:44:28.259Z,7.40
2023-09-30T18:46:55.574Z,16.65
2023-09-30T18:49:22.838Z,18.48
2023-09-30T18:51:51.541Z,19.60
2023-09-30T18:54:18.999Z,13.13
2023-09-30T18:56:47.524Z,18.77
2023-09-30T18:59:21.689Z,19.20
2023-09-30T19:01:52.380Z,10.55
2023-09-30T19:04:19.905Z,15.90
2023-09-30T19:06:47.460Z,9.00
2023-09-30T19:09:15.576Z,7.55
2023-09-30T19:11:45.026Z,8.60
2023-09-30T19:14:14.657Z,9.90
2023-09-30T19:16:44.768Z,8.20
2023-09-30T19:19:12.934Z,11.02
2023-09-30T19:21:40.599Z,9.00
2023-09-30T19:24:08.432Z,9.63
2023-09-30T19:26:36.519Z,13.50
2023-09-30T19:29:05.259Z,9.35
2023-09-30T19:31:32.852Z,13.98
2023-09-30T19:34:00.137Z,12.80
2023-09-30T19:36:28.698Z,13.82
2023-09-30T19:38:56.068Z,10.27
2023-09-30T19:41:23.475Z,11.75
2023-09-30T19:43:51.839Z,10.68
2023-09-30T19:46:19.297Z,14.70
2023-09-30T19:48:46.766Z,11.45
2023-09-30T19:51:22.914Z,11.32
2023-09-30T19:53:50.914Z,9.57
2023-09-30T19:56:17.996Z,10.20
2023-09-30T19:58:45.077Z,7.57
2023-09-30T20:01:13.114Z,8.40
2023-09-30T20:03:40.372Z,9.88
2023-09-30T20:06:21.058Z,19.02
2023-09-30T20:08:49.976Z,12.27
2023-09-30T20:11:28.815Z,11.23
2023-09-30T20:13:57.433Z,7.38
2023-09-30T20:16:24.966Z,10.05
2023-09-30T20:18:52.471Z,8.38
2023-09-30T20:21:21.724Z,9.43
2023-09-30T20:23:51.072Z,8.95
2023-09-30T20:26:27.858Z,11.35
2023-09-30T20:28:58.225Z,11.30
2023-09-30T20:31:27.384Z,8.38
2023-09-30T20:33:55.304Z,6.75
2023-09-30T20:36:23.431Z,11.23
2023-09-30T20:38:50.558Z,10.70
2023-09-30T20:41:18.154Z,12.95
2023-09-30T20:43:45.838Z,13.80
2023-09-30T20:46:14.196Z,9.90
2023-09-30T20:48:43.437Z,29.45
2023-09-30T20:51:11.248Z,21.70
2023-09-30T20:53:40.148Z,16.15
2023-09-30T20:56:12.105Z,15.10
2023-09-30T20:58:40.191Z,17.63
2023-09-30T21:01:10.737Z,12.02
2023-09-30T21:03:38.726Z,14.85
2023-09-30T21:06:07.625Z,11.80
2023-09-30T21:08:37.675Z,9.52
2023-09-30T21:11:08.708Z,11.40
2023-09-30T21:13:36.150Z,9.88
2023-09-30T21:16:04.876Z,12.68
2023-09-30T21:18:33.651Z,13.77
2023-09-30T21:21:01.229Z,10.88
2023-09-30T21:23:29.221Z,9.82
2023-09-30T21:25:56.951Z,6.18
2023-09-30T21:28:24.932Z,11.27
2023-09-30T21:30:52.287Z,13.88
2023-09-30T21:33:19.374Z,10.77
2023-09-30T21:35:58.310Z,12.45
2023-09-30T21:38:26.119Z,11.23
2023-09-30T21:40:53.412Z,10.75
2023-09-30T21:43:20.773Z,11.85
2023-09-30T21:45:47.977Z,14.63
2023-09-30T21:48:15.084Z,10.73
2023-09-30T21:50:48.350Z,11.25
2023-09-30T21:53:16.194Z,13.55
2023-09-30T21:55:43.857Z,9.93
2023-09-30T21:58:10.936Z,7.28
2023-09-30T22:00:39.847Z,9.30
2023-09-30T22:03:10.165Z,9.45
2023-09-30T22:05:52.006Z,8.88
2023-09-30T22:08:26.458Z,6.25
2023-09-30T22:10:55.222Z,11.52
2023-09-30T22:13:23.918Z,10.07
2023-09-30T22:15:55.405Z,6.47
2023-09-30T22:20:53.688Z,9.77
2023-09-30T22:23:20.872Z,8.38
2023-09-30T22:25:49.965Z,6.72
2023-09-30T22:28:18.190Z,7.50
2023-09-30T22:30:47.475Z,9.05
2023-09-30T22:33:15.881Z,9.73
2023-09-30T22:35:43.118Z,9.40
2023-09-30T22:38:10.526Z,8.52
2023-09-30T22:40:37.964Z,13.80
2023-09-30T22:43:08.095Z,10.10
2023-09-30T22:45:35.707Z,7.68
2023-09-30T22:48:03.844Z,11.80
2023-09-30T22:50:33.742Z,7.57
2023-09-30T22:53:02.125Z,8.48
2023-09-30T22:55:29.232Z,11.85
2023-09-30T22:57:56.703Z,11.30
2023-09-30T23:00:28.377Z,15.23
2023-09-30T23:02:56.324Z,12.52
2023-09-30T23:05:26.319Z,9.07
2023-09-30T23:07:53.465Z,8.68
2023-09-30T23:10:20.919Z,11.77
2023-09-30T23:12:50.173Z,6.75
2023-09-30T23:15:19.651Z,8.88
2023-09-30T23:17:48.770Z,9.98
2023-09-30T23:20:21.695Z,10.95
2023-09-30T23:22:54.287Z,5.80
2023-09-30T23:25:36.181Z,11.00
2023-09-30T23:28:04.592Z,9.57
2023-09-30T23:30:33.811Z,12.02
2023-09-30T23:33:07.556Z,9.10
2023-09-30T23:35:37.569Z,10.07
2023-09-30T23:38:07.519Z,8.02
2023-09-30T23:40:35.124Z,10.30
2023-09-30T23:43:03.308Z,19.73
2023-09-30T23:45:36.078Z,10.68
2023-09-30T23:48:08.358Z,12.57
2023-09-30T23:50:36.985Z,8.65
2023-09-30T23:53:07.753Z,7.68
2023-09-30T23:55:37.495Z,8.73
2023-09-30T23:58:16.569Z,7.72
